world map with EFL marked

EFL - Airport

This information may not be accurate or current and is not valid for navigation or flight planning. No warranty of fitness for any purpose is made or implied.

flag of Greece

Donate via PayPal

Additional information is available on the NEW Great Circle Mapper

Location
City:  Kefallinia Island, Greece
Name:Argostolion
ICAO / IATA:LGKF / EFL

Details
Type:Airport (Aerodrome, Airfield)
Use:Public/Civil
Latitude:38°07'12"N (38.120069)
Longitude:20°30'02"E (20.500481)
Datum:WGS 1984
Elevation:59 ft (18 m)
Runways:1
Longest:7992 × 148 ft (2436 × 45 m)

Time
Timezone:UTC+2 (DST+3)
Local Time:

Weather
METAR:LGKF  291750Z 32009KT 9999 FEW018 26/21 Q1010
TAF:LGKF  (expired)

Related Locations
Nearby:
Farthest:CHT: 11472 mi / 18462 km
Waitangi [Tuuta], Chatham Islands, NZ

Find:

   beyond  
but within

Other Information
Maps:
Links:
Sources:

  


 


Great Circle Mapper   Great Circle Mapper
Great Circle Mapper FAQ   Great Circle Mapper FAQ
  Karl's Home Page
KLSē   KLSē Home
   GC on Facebook
Airlines of the World   Airlines of the World
Donate via PayPal


Copyright © 2004-2014, Karl L. Swartz. All rights reserved.
All trademarks mentioned herein belong to their respective owners.

Please see credits for attribution and copyright information.

Karl Swartz <karl@kls2.com>
  Powered by FreeBSD
Valid HTML 4.01!
Labeled with ICRA
hCard Microformat
Geo Microformat